Time;durP1;ratioP1;P1;durP2;ratioP2;P2;SDS_P1;SDS_P2;PMS_P1;PMS_P2;Temp;Humidity;BMP_temperature;BMP_pressure;BME280_temperature;BME280_humidity;BME280_pressure;Samples;Min_cycle;Max_cycle;Signal;HPM_P1;HPM_P2
2022/03/27 00:01:13;;;;;;;15.17;10.93;;;;;;;7.09;77.85;101385.41;4937105;28;20321;-59
2022/03/27 00:03:38;;;;;;;14.13;11.50;;;;;;;7.14;78.27;101377.66;4973880;28;20187;-58
2022/03/27 00:06:04;;;;;;;18.33;12.70;;;;;;;7.15;78.04;101375.06;4974124;28;20206;-59
2022/03/27 00:08:29;;;;;;;17.53;11.83;;;;;;;7.10;78.49;101376.88;4974459;28;20178;-58
2022/03/27 00:13:39;;;;;;;14.53;11.90;;;;;;;7.08;78.84;101379.47;4985957;28;20211;-59
2022/03/27 00:16:05;;;;;;;18.77;12.63;;;;;;;7.04;79.28;101372.69;4983101;28;20225;-59
2022/03/27 00:18:30;;;;;;;14.03;11.53;;;;;;;7.07;78.91;101376.91;4984290;28;20533;-59
2022/03/27 00:20:56;;;;;;;16.83;12.47;;;;;;;7.03;79.00;101372.72;4983115;28;20231;-60
2022/03/27 00:23:21;;;;;;;16.07;12.47;;;;;;;7.01;79.30;101370.22;4992747;28;20249;-59
2022/03/27 00:25:48;;;;;;;14.80;12.47;;;;;;;6.91;79.81;101374.66;4993643;28;20200;-59
2022/03/27 00:28:14;;;;;;;19.23;13.37;;;;;;;6.92;79.81;101375.47;4993528;28;20203;-58
2022/03/27 00:30:39;;;;;;;18.83;12.27;;;;;;;6.90;80.23;101372.97;4968379;28;20312;-58
2022/03/27 00:33:05;;;;;;;17.17;13.17;;;;;;;6.90;80.07;101378.09;5003650;28;20942;-59
2022/03/27 00:35:31;;;;;;;19.67;13.60;;;;;;;6.86;80.28;101367.94;4993297;28;20662;-59
2022/03/27 00:37:56;;;;;;;17.67;12.70;;;;;;;6.82;80.49;101373.97;4993017;28;20184;-59
2022/03/27 00:40:21;;;;;;;16.67;13.13;;;;;;;6.65;81.48;101374.28;4984386;28;20292;-59
2022/03/27 00:42:47;;;;;;;16.90;13.17;;;;;;;6.67;81.79;101368.25;5005859;28;20694;-60
2022/03/27 00:45:13;;;;;;;16.27;13.20;;;;;;;6.59;82.17;101380.34;4992382;28;20209;-59
2022/03/27 00:47:38;;;;;;;18.27;12.90;;;;;;;6.61;82.58;101383.72;4993071;28;20171;-59
2022/03/27 00:50:04;;;;;;;21.87;14.70;;;;;;;6.62;82.45;101376.03;4984811;28;20196;-59
2022/03/27 00:52:29;;;;;;;17.53;14.03;;;;;;;6.64;82.20;101376.00;4975790;28;20213;-59
2022/03/27 00:54:56;;;;;;;18.83;13.63;;;;;;;6.62;82.34;101364.94;4992682;28;20619;-59
2022/03/27 00:57:21;;;;;;;16.17;13.53;;;;;;;6.60;82.71;101375.22;4991686;28;20195;-59
2022/03/27 00:59:47;;;;;;;17.30;13.80;;;;;;;6.59;82.72;101372.69;4991609;28;20183;-58
2022/03/27 01:02:13;;;;;;;18.50;13.00;;;;;;;6.55;83.04;101373.59;4981261;28;20327;-59
2022/03/27 01:04:43;;;;;;;18.13;13.73;;;;;;;6.58;82.93;101371.00;4992563;28;20644;-59
2022/03/27 01:07:12;;;;;;;17.20;13.80;;;;;;;6.45;83.38;101366.09;4993014;28;20184;-59
2022/03/27 01:09:38;;;;;;;18.77;13.57;;;;;;;6.42;83.75;101362.75;4991490;28;20186;-59
2022/03/27 01:12:20;;;;;;;18.57;14.23;;;;;;;6.30;83.56;101359.53;4967618;28;20231;-58
2022/03/27 01:14:47;;;;;;;17.73;13.20;;;;;;;6.35;83.95;101359.47;4984397;28;20187;-60
2022/03/27 01:17:18;;;;;;;19.23;14.57;;;;;;;6.37;83.69;101360.25;4991588;28;20206;-59
2022/03/27 01:19:49;;;;;;;18.70;14.03;;;;;;;6.31;84.02;101355.25;4991292;28;20233;-59
2022/03/27 01:22:15;;;;;;;18.13;13.53;;;;;;;6.24;84.39;101354.53;4997934;28;20304;-59
2022/03/27 01:24:41;;;;;;;17.43;13.03;;;;;;;6.19;84.98;101353.75;4990665;28;20179;-60
2022/03/27 01:27:07;;;;;;;18.70;13.80;;;;;;;6.13;84.93;101349.56;4992460;28;20183;-62
2022/03/27 01:29:32;;;;;;;18.03;13.13;;;;;;;6.08;84.88;101350.53;4992754;28;20229;-58
2022/03/27 01:31:58;;;;;;;16.23;12.93;;;;;;;6.14;84.75;101345.31;4981081;28;20359;-59
2022/03/27 01:34:23;;;;;;;16.73;12.60;;;;;;;6.04;85.18;101347.19;4991945;28;20176;-59
2022/03/27 01:36:49;;;;;;;18.03;14.07;;;;;;;5.99;84.99;101343.81;4990304;28;20183;-59
2022/03/27 01:39:16;;;;;;;18.80;14.37;;;;;;;5.92;85.22;101335.41;4991192;28;20648;-59
2022/03/27 01:41:43;;;;;;;16.03;12.70;;;;;;;5.84;85.50;101347.44;4984030;28;20226;-60
2022/03/27 01:44:18;;;;;;;17.10;13.07;;;;;;;5.88;84.78;101338.00;4973261;28;20180;-59
2022/03/27 01:46:44;;;;;;;19.07;13.23;;;;;;;5.87;84.88;101346.56;4971192;28;20298;-60
2022/03/27 01:49:12;;;;;;;17.97;13.47;;;;;;;5.86;85.21;101344.88;4971608;28;20187;-60
2022/03/27 01:51:39;;;;;;;17.50;13.97;;;;;;;5.81;85.76;101343.22;4954317;28;20299;-59
2022/03/27 01:54:05;;;;;;;26.07;14.20;;;;;;;5.77;86.71;101339.03;4986744;28;20193;-60
2022/03/27 01:56:31;;;;;;;18.73;14.07;;;;;;;5.72;87.80;101342.50;4972384;28;20172;-61
2022/03/27 01:58:56;;;;;;;17.50;13.23;;;;;;;5.69;87.93;101335.72;4971613;28;20521;-60
2022/03/27 02:01:22;;;;;;;18.63;14.23;;;;;;;5.72;88.35;101342.50;4964355;28;20325;-59
2022/03/27 02:03:48;;;;;;;21.63;13.73;;;;;;;5.63;88.70;101336.69;4977197;28;20180;-60
2022/03/27 02:06:15;;;;;;;19.13;14.03;;;;;;;5.61;88.74;101335.00;4972645;28;20202;-61
2022/03/27 02:08:42;;;;;;;20.17;13.37;;;;;;;5.68;88.50;101331.53;4971402;28;20179;-60
2022/03/27 02:11:08;;;;;;;18.70;14.60;;;;;;;5.64;88.67;101332.41;4964551;28;20231;-59
2022/03/27 02:13:33;;;;;;;21.00;14.23;;;;;;;5.66;88.61;101340.91;4983263;28;20504;-60
2022/03/27 02:15:59;;;;;;;20.80;14.17;;;;;;;5.63;88.38;101329.03;4993598;28;20190;-60
2022/03/27 02:18:29;;;;;;;19.53;14.37;;;;;;;5.58;88.58;101335.91;5004406;28;20638;-61
2022/03/27 02:20:55;;;;;;;20.17;14.43;;;;;;;5.55;89.02;101333.38;4995114;28;20321;-61
2022/03/27 02:23:24;;;;;;;19.07;14.80;;;;;;;5.44;90.02;101336.06;4999386;28;20205;-60
2022/03/27 02:25:51;;;;;;;20.30;14.33;;;;;;;5.49;90.34;101334.31;5014057;28;20662;-60
2022/03/27 02:28:16;;;;;;;23.87;14.77;;;;;;;5.50;90.91;101327.50;5013890;28;20225;-60
2022/03/27 02:30:42;;;;;;;21.63;14.43;;;;;;;5.44;91.41;101336.06;5005056;28;20264;-60
2022/03/27 02:33:07;;;;;;;21.20;15.73;;;;;;;5.44;91.94;101330.13;4974951;28;20200;-60
2022/03/27 02:35:33;;;;;;;20.60;14.57;;;;;;;5.44;92.13;101327.59;4991479;28;20713;-60
2022/03/27 02:37:59;;;;;;;21.40;14.97;;;;;;;5.34;92.66;101329.41;4994395;28;20717;-60
2022/03/27 02:40:24;;;;;;;18.40;13.93;;;;;;;5.41;92.22;101330.16;4964690;28;20244;-60
2022/03/27 02:42:49;;;;;;;19.77;14.47;;;;;;;5.42;92.07;101332.72;4977069;28;20234;-61
2022/03/27 02:45:15;;;;;;;19.03;14.80;;;;;;;5.39;92.10;101332.75;4995050;28;20278;-61
2022/03/27 02:47:41;;;;;;;27.37;15.67;;;;;;;5.47;91.54;101330.94;4995577;28;20180;-61
2022/03/27 02:50:07;;;;;;;20.03;14.53;;;;;;;5.40;91.63;101328.50;4987831;28;20634;-60
2022/03/27 02:52:33;;;;;;;18.77;14.87;;;;;;;5.28;92.00;101327.81;4988035;28;20275;-61
2022/03/27 02:54:58;;;;;;;18.53;14.27;;;;;;;5.16;93.23;101326.22;4981333;28;20184;-61
2022/03/27 02:57:24;;;;;;;20.30;14.37;;;;;;;5.26;93.73;101324.41;4975995;28;20179;-60
2022/03/27 02:59:52;;;;;;;19.63;14.97;;;;;;;5.23;93.78;101324.44;4974385;28;20183;-60
2022/03/27 03:02:18;;;;;;;19.53;15.83;;;;;;;5.14;94.40;101322.84;4955622;28;20273;-60
2022/03/27 03:04:44;;;;;;;20.70;15.20;;;;;;;5.22;95.39;101321.91;4973935;28;20335;-60
2022/03/27 03:07:09;;;;;;;21.33;15.50;;;;;;;5.26;95.14;101323.56;4975684;28;20259;-60
2022/03/27 03:09:34;;;;;;;22.07;15.73;;;;;;;5.32;94.63;101326.88;4975633;28;20188;-61
2022/03/27 03:12:00;;;;;;;18.80;15.37;;;;;;;5.28;94.27;101326.94;4980105;28;20231;-59
2022/03/27 03:14:26;;;;;;;20.17;15.67;;;;;;;5.26;94.33;101323.56;4973687;28;20184;-60
2022/03/27 03:16:53;;;;;;;24.40;15.67;;;;;;;5.23;94.58;101326.97;4966828;28;20246;-61
2022/03/27 03:19:18;;;;;;;21.33;14.07;;;;;;;5.25;94.94;101332.09;4974007;28;20567;-60
2022/03/27 03:21:44;;;;;;;20.77;15.47;;;;;;;5.25;94.90;101322.72;4981530;28;20596;-60
2022/03/27 03:24:10;;;;;;;21.63;16.50;;;;;;;5.26;95.05;101324.41;4979450;28;20187;-60
2022/03/27 03:26:35;;;;;;;20.57;16.47;;;;;;;5.30;95.14;101325.22;4975437;28;20287;-60
2022/03/27 03:29:01;;;;;;;18.70;14.67;;;;;;;5.24;95.31;101327.84;4980883;28;20262;-61
2022/03/27 03:31:26;;;;;;;22.97;16.37;;;;;;;5.11;95.99;101328.00;4974367;28;20218;-60
2022/03/27 03:33:52;;;;;;;21.10;15.27;;;;;;;5.10;96.42;101323.75;4992920;28;20207;-62
2022/03/27 03:36:17;;;;;;;21.40;16.33;;;;;;;5.10;96.83;101326.31;4973702;28;20208;-63
2022/03/27 03:38:43;;;;;;;18.50;14.80;;;;;;;5.14;97.15;101327.13;4985629;28;20623;-60
2022/03/27 03:41:09;;;;;;;22.33;16.77;;;;;;;5.09;97.24;101328.88;4983991;28;20235;-60
2022/03/27 03:43:37;;;;;;;19.03;16.00;;;;;;;5.05;97.13;101327.22;4985411;28;20179;-60
2022/03/27 03:46:03;;;;;;;20.87;15.70;;;;;;;5.07;97.35;101328.88;4994145;28;20278;-61
2022/03/27 03:48:29;;;;;;;21.20;15.40;;;;;;;5.01;97.47;101322.16;4992955;28;20183;-60
2022/03/27 03:50:55;;;;;;;19.57;16.10;;;;;;;4.96;98.11;101329.03;4973654;28;20230;-61
2022/03/27 03:53:21;;;;;;;24.63;17.27;;;;;;;4.88;99.75;101320.59;4992451;28;20195;-62
2022/03/27 03:55:46;;;;;;;22.03;17.23;;;;;;;4.94;100.00;101323.09;4993014;28;20183;-62
2022/03/27 03:58:12;;;;;;;20.53;16.97;;;;;;;4.89;100.00;101335.06;4992750;28;20186;-62
2022/03/27 04:00:37;;;;;;;22.97;16.67;;;;;;;4.90;99.87;101326.53;4988768;28;20685;-62
2022/03/27 04:03:02;;;;;;;21.10;16.00;;;;;;;4.87;100.00;101323.19;5004023;28;20253;-60
2022/03/27 04:05:28;;;;;;;24.00;17.17;;;;;;;4.89;100.00;101326.53;4993863;28;20191;-60
2022/03/27 04:07:53;;;;;;;24.73;16.33;;;;;;;4.90;100.00;101326.53;4993755;28;20590;-62
2022/03/27 04:10:19;;;;;;;21.57;17.43;;;;;;;4.91;100.00;101327.38;4984938;28;20218;-60
2022/03/27 04:12:44;;;;;;;22.87;16.97;;;;;;;4.89;100.00;101326.53;5006851;28;20583;-59
2022/03/27 04:15:09;;;;;;;27.20;17.20;;;;;;;4.85;100.00;101326.59;4993542;28;20203;-62
2022/03/27 04:17:42;;;;;;;22.60;16.80;;;;;;;4.79;100.00;101315.63;4992472;28;20714;-60
2022/03/27 04:20:08;;;;;;;23.13;17.73;;;;;;;4.81;100.00;101322.41;4982599;28;20218;-62
2022/03/27 04:22:33;;;;;;;24.97;17.23;;;;;;;4.90;100.00;101323.13;4992447;28;20197;-60
2022/03/27 04:24:58;;;;;;;24.97;18.03;;;;;;;4.95;100.00;101318.81;4993135;28;20700;-59
2022/03/27 04:27:24;;;;;;;24.43;17.27;;;;;;;4.91;100.00;101328.25;4993685;28;20182;-60
2022/03/27 04:29:49;;;;;;;28.03;18.10;;;;;;;4.86;100.00;101324.88;4992426;28;20187;-61
2022/03/27 04:32:15;;;;;;;23.47;17.47;;;;;;;4.83;100.00;101330.84;4982216;28;20226;-62
2022/03/27 04:34:40;;;;;;;23.37;17.73;;;;;;;4.77;100.00;101330.91;4992990;28;20232;-60
2022/03/27 04:37:05;;;;;;;23.40;17.00;;;;;;;4.81;100.00;101330.03;4993404;28;20420;-60
2022/03/27 04:39:31;;;;;;;23.43;18.10;;;;;;;4.76;100.00;101333.50;4992383;28;20187;-60
2022/03/27 04:41:56;;;;;;;22.73;16.70;;;;;;;4.78;100.00;101339.44;4982300;28;20231;-60
2022/03/27 04:44:21;;;;;;;23.70;17.50;;;;;;;4.78;100.00;101337.72;4992421;28;20194;-62
2022/03/27 04:46:47;;;;;;;22.93;16.53;;;;;;;4.71;100.00;101338.63;4991943;28;20203;-61
2022/03/27 04:49:13;;;;;;;24.70;16.73;;;;;;;4.72;100.00;101339.50;4975398;28;20272;-61
2022/03/27 04:51:39;;;;;;;26.07;18.13;;;;;;;4.66;100.00;101345.47;4975887;28;20253;-61
2022/03/27 04:54:04;;;;;;;23.00;17.30;;;;;;;4.72;100.00;101342.88;4992214;28;20175;-61
2022/03/27 04:56:31;;;;;;;22.80;18.03;;;;;;;4.69;100.00;101345.47;4993210;28;20186;-61
2022/03/27 04:58:56;;;;;;;21.30;16.40;;;;;;;4.63;100.00;101343.81;4991898;28;20673;-61
2022/03/27 05:01:22;;;;;;;20.00;16.70;;;;;;;4.63;100.00;101348.06;4984531;28;20254;-61
2022/03/27 05:03:47;;;;;;;23.70;17.37;;;;;;;4.65;100.00;101337.00;4997821;28;20191;-61
2022/03/27 05:06:12;;;;;;;23.80;17.37;;;;;;;4.75;100.00;101342.00;4991591;28;20304;-61
2022/03/27 05:08:37;;;;;;;22.53;17.30;;;;;;;4.62;100.00;101337.00;4993301;28;20178;-61
2022/03/27 05:11:03;;;;;;;23.90;17.83;;;;;;;4.62;100.00;101339.56;4990729;28;20227;-61
2022/03/27 05:13:28;;;;;;;25.17;16.63;;;;;;;4.69;100.00;101345.47;4991195;28;20182;-61
2022/03/27 05:15:54;;;;;;;21.47;16.47;;;;;;;4.76;100.00;101336.88;4992993;28;20610;-61
2022/03/27 05:18:20;;;;;;;28.23;17.90;;;;;;;4.78;100.00;101341.97;4992629;28;20172;-62
2022/03/27 05:20:46;;;;;;;22.30;17.03;;;;;;;4.74;100.00;101341.16;4988212;28;20234;-61
2022/03/27 05:23:12;;;;;;;23.23;17.17;;;;;;;4.77;100.00;101336.00;4993005;28;20281;-62
2022/03/27 05:25:45;;;;;;;24.07;17.80;;;;;;;4.80;100.00;101337.69;4973239;28;20566;-61
2022/03/27 05:28:12;;;;;;;22.90;16.60;;;;;;;4.84;100.00;101345.28;4987001;28;20189;-61
2022/03/27 05:30:38;;;;;;;22.10;16.10;;;;;;;4.84;100.00;101339.38;4967343;28;20620;-61
2022/03/27 05:33:04;;;;;;;27.00;17.80;;;;;;;4.85;100.00;101344.44;4976327;28;20557;-61
2022/03/27 05:35:30;;;;;;;19.80;16.17;;;;;;;4.90;100.00;101352.03;4991349;28;20650;-61
2022/03/27 05:37:57;;;;;;;26.27;17.40;;;;;;;4.98;100.00;101347.69;4991182;28;20179;-60
2022/03/27 05:40:24;;;;;;;23.40;16.30;;;;;;;5.01;100.00;101346.81;4982573;28;20232;-61
2022/03/27 05:42:50;;;;;;;24.07;17.80;;;;;;;4.95;100.00;101357.06;4978164;28;20183;-59
2022/03/27 05:45:16;;;;;;;20.70;15.90;;;;;;;5.08;100.00;101360.34;4985387;28;20550;-59
2022/03/27 05:47:42;;;;;;;23.37;17.83;;;;;;;5.11;100.00;101352.66;4972896;28;20176;-60
2022/03/27 05:50:09;;;;;;;24.10;16.73;;;;;;;5.13;100.00;101353.47;4978639;28;20267;-60
2022/03/27 05:52:35;;;;;;;23.17;16.90;;;;;;;5.22;100.00;101355.94;4991276;28;20232;-59
2022/03/27 05:55:00;;;;;;;19.67;16.80;;;;;;;5.23;100.00;101364.41;4991526;28;20183;-60
2022/03/27 05:57:26;;;;;;;23.07;15.67;;;;;;;5.27;100.00;101363.50;4995300;28;20184;-60
2022/03/27 05:59:51;;;;;;;22.80;16.40;;;;;;;5.32;100.00;101357.50;5002780;28;20187;-60
2022/03/27 06:02:17;;;;;;;25.13;16.20;;;;;;;5.47;100.00;101369.22;4994710;28;20348;-60
2022/03/27 06:04:42;;;;;;;23.97;16.40;;;;;;;5.61;100.00;101370.75;5012630;28;20178;-60
2022/03/27 06:07:08;;;;;;;21.00;17.10;;;;;;;5.70;100.00;101375.72;5008682;28;20181;-61
2022/03/27 06:09:34;;;;;;;22.57;17.03;;;;;;;5.75;100.00;101378.22;5014017;28;20183;-61
2022/03/27 06:12:00;;;;;;;21.53;15.90;;;;;;;5.82;100.00;101370.44;4997937;28;20222;-60
2022/03/27 06:14:26;;;;;;;23.73;16.87;;;;;;;6.00;100.00;101375.34;5007447;28;20549;-58
2022/03/27 06:16:51;;;;;;;19.80;16.13;;;;;;;6.12;100.00;101363.22;5012345;28;20278;-60
2022/03/27 06:19:16;;;;;;;25.93;17.17;;;;;;;6.12;100.00;101377.72;5013743;28;20209;-59
2022/03/27 06:21:43;;;;;;;20.63;16.87;;;;;;;6.31;99.90;101380.81;4988495;28;20634;-59
2022/03/27 06:24:09;;;;;;;22.40;15.47;;;;;;;6.50;99.02;101383.91;4989555;28;20176;-59
2022/03/27 06:26:34;;;;;;;20.93;16.13;;;;;;;6.58;97.51;101384.63;4986644;28;20214;-58
2022/03/27 06:29:00;;;;;;;21.80;16.77;;;;;;;6.68;96.30;101381.91;4987011;28;20179;-60
2022/03/27 06:31:25;;;;;;;21.87;17.00;;;;;;;6.89;95.63;101375.56;4985398;28;21035;-59
2022/03/27 06:33:50;;;;;;;22.00;17.33;;;;;;;6.98;93.78;101375.38;4990393;28;20181;-59
2022/03/27 06:36:16;;;;;;;21.63;16.87;;;;;;;7.14;92.61;101378.47;4985433;28;20187;-59
2022/03/27 06:38:41;;;;;;;21.43;16.03;;;;;;;7.31;90.67;101373.03;4986909;28;20221;-60
2022/03/27 06:41:07;;;;;;;20.27;15.10;;;;;;;7.43;89.37;101375.34;4983325;28;20702;-60
2022/03/27 06:43:33;;;;;;;19.53;15.77;;;;;;;7.70;88.03;101373.06;4987524;28;20276;-60
2022/03/27 06:45:59;;;;;;;19.63;16.07;;;;;;;8.01;87.11;101382.63;4986298;28;20260;-59
2022/03/27 06:48:24;;;;;;;19.57;15.93;;;;;;;8.41;84.97;101375.69;4995932;28;20183;-60
2022/03/27 06:50:50;;;;;;;21.13;15.97;;;;;;;9.37;81.82;101370.56;4992112;28;20245;-62
2022/03/27 06:53:20;;;;;;;20.73;16.03;;;;;;;10.25;74.69;101370.44;4990556;28;20211;-62
2022/03/27 06:55:46;;;;;;;23.10;16.60;;;;;;;11.29;69.60;101366.88;4993965;28;20183;-62
2022/03/27 06:58:12;;;;;;;16.23;14.07;;;;;;;12.83;62.36;101370.16;4978552;28;20222;-62
2022/03/27 07:03:21;;;;;;;15.80;14.03;;;;;;;17.24;46.11;101370.41;4983842;28;20254;-64
2022/03/27 07:05:46;;;;;;;15.03;13.43;;;;;;;18.66;42.00;101375.16;4975324;28;20207;-62
2022/03/27 07:08:14;;;;;;;13.87;11.90;;;;;;;20.12;38.31;101373.56;4976104;28;20231;-62
2022/03/27 07:10:41;;;;;;;14.27;12.77;;;;;;;19.84;38.12;101379.00;4967948;28;20235;-60
2022/03/27 07:13:09;;;;;;;12.73;11.53;;;;;;;21.37;35.77;101384.88;4974680;28;20662;-61
2022/03/27 07:15:37;;;;;;;14.87;13.30;;;;;;;21.70;35.07;101380.50;4968179;28;20235;-61
2022/03/27 07:18:03;;;;;;;14.53;13.03;;;;;;;21.14;35.88;101381.47;4974837;28;20263;-60
2022/03/27 07:20:30;;;;;;;14.50;13.00;;;;;;;22.08;34.19;101380.94;4981844;28;20234;-62
2022/03/27 07:22:59;;;;;;;14.47;13.07;;;;;;;22.84;33.29;101380.63;5005498;28;20612;-64
2022/03/27 07:25:26;;;;;;;14.50;13.10;;;;;;;22.87;32.49;101392.66;4994135;28;20199;-63
2022/03/27 07:27:52;;;;;;;14.53;13.03;;;;;;;23.19;32.20;101389.88;4992294;28;20630;-64
2022/03/27 07:30:18;;;;;;;14.83;12.40;;;;;;;23.68;31.69;101384.66;4943510;28;20627;-63
2022/03/27 07:32:44;;;;;;;15.02;12.88;;;;;;;23.58;31.79;101390.88;4960765;28;20183;-63
2022/03/27 07:35:12;;;;;;;15.30;13.75;;;;;;;22.92;32.92;101395.69;4975170;28;20191;-63
2022/03/27 07:37:39;;;;;;;15.68;12.95;;;;;;;23.08;32.67;101394.38;4975747;28;20642;-63
2022/03/27 07:40:08;;;;;;;16.60;13.70;;;;;;;21.97;34.22;101396.69;4967461;28;20176;-63
2022/03/27 07:42:34;;;;;;;15.60;13.47;;;;;;;20.85;36.78;101392.44;4978315;28;20195;-61
2022/03/27 07:45:00;;;;;;;15.47;13.53;;;;;;;20.28;38.32;101394.97;4977067;28;20183;-61
2022/03/27 07:47:25;;;;;;;17.37;13.80;;;;;;;20.05;39.19;101390.63;4994870;28;20179;-60
2022/03/27 07:49:51;;;;;;;17.33;14.20;;;;;;;20.19;39.14;101387.78;4994532;28;20246;-60
2022/03/27 07:52:16;;;;;;;16.73;13.97;;;;;;;20.93;37.80;101389.22;4983433;28;20288;-63
2022/03/27 07:54:41;;;;;;;17.53;14.77;;;;;;;20.60;38.51;101390.84;4994113;28;20251;-62
2022/03/27 07:57:08;;;;;;;15.77;14.17;;;;;;;20.62;38.28;101381.91;4993520;28;20205;-62
2022/03/27 07:59:34;;;;;;;15.93;14.33;;;;;;;20.60;39.28;101396.06;4993391;28;20274;-61
2022/03/27 08:02:00;;;;;;;16.97;14.03;;;;;;;19.52;40.40;101404.81;4985942;28;20322;-61
2022/03/27 08:04:25;;;;;;;17.57;14.40;;;;;;;18.53;42.67;101399.44;4992731;28;20546;-62
2022/03/27 08:06:51;;;;;;;16.23;14.57;;;;;;;19.62;41.32;101398.03;4994415;28;20210;-61
2022/03/27 08:09:16;;;;;;;15.77;14.13;;;;;;;19.17;42.30;101393.34;4994186;28;20229;-62
2022/03/27 08:11:42;;;;;;;17.33;14.60;;;;;;;20.15;40.66;101388.97;4996835;28;20266;-61
2022/03/27 08:14:10;;;;;;;19.10;16.00;;;;;;;19.12;41.90;101389.41;4992267;28;20183;-63
2022/03/27 08:16:37;;;;;;;17.17;15.47;;;;;;;18.69;42.76;101387.97;4992014;28;20183;-63
2022/03/27 08:19:04;;;;;;;20.13;15.80;;;;;;;19.00;42.76;101391.94;4973988;28;20625;-64
2022/03/27 08:21:29;;;;;;;16.57;14.87;;;;;;;20.12;40.61;101387.44;4993278;28;20313;-61
2022/03/27 08:23:55;;;;;;;15.67;14.07;;;;;;;18.95;42.22;101388.81;4997399;28;20326;-64
2022/03/27 08:29:04;;;;;;;17.00;15.30;;;;;;;19.35;41.78;101393.81;4994146;28;20195;-61
2022/03/27 08:31:32;;;;;;;15.83;14.33;;;;;;;19.56;41.75;101393.25;4983302;28;20231;-61
2022/03/27 08:33:58;;;;;;;18.40;16.30;;;;;;;19.24;41.67;101400.72;4987163;28;20631;-63
2022/03/27 08:36:23;;;;;;;16.27;14.60;;;;;;;19.34;42.76;101394.75;4992579;28;20212;-62
2022/03/27 08:38:49;;;;;;;16.50;14.90;;;;;;;18.79;42.95;101385.56;4989294;28;20234;-62
2022/03/27 08:41:16;;;;;;;17.17;15.47;;;;;;;18.08;44.85;101395.53;4973551;28;20716;-62
2022/03/27 08:43:43;;;;;;;18.10;16.17;;;;;;;17.31;47.28;101390.84;4972529;28;20234;-63
2022/03/27 08:46:11;;;;;;;21.47;16.07;;;;;;;17.38;47.86;101387.75;4974052;28;20196;-62
2022/03/27 08:48:37;;;;;;;16.57;14.83;;;;;;;17.53;46.98;101388.53;4972933;28;20282;-62
2022/03/27 08:51:09;;;;;;;16.50;14.70;;;;;;;17.01;47.95;101389.22;4966113;28;20239;-62
2022/03/27 08:53:48;;;;;;;16.77;14.53;;;;;;;18.26;45.79;101396.06;4992399;28;20526;-63
2022/03/27 08:56:15;;;;;;;17.07;14.90;;;;;;;19.23;42.78;101383.44;4992089;28;20203;-62
2022/03/27 08:58:41;;;;;;;16.53;14.83;;;;;;;18.74;42.97;101396.28;4993356;28;20180;-62
2022/03/27 09:01:07;;;;;;;18.63;14.37;;;;;;;19.58;41.73;101390.50;4990958;28;20241;-60
2022/03/27 09:03:33;;;;;;;16.10;14.17;;;;;;;20.66;39.28;101387.75;4991201;28;20180;-60
2022/03/27 09:06:01;;;;;;;17.07;15.23;;;;;;;21.24;38.33;101390.22;4991567;28;20257;-60
2022/03/27 09:08:32;;;;;;;17.37;15.60;;;;;;;20.97;38.09;101390.63;4975714;28;20594;-60
2022/03/27 09:10:57;;;;;;;17.37;15.67;;;;;;;20.26;38.90;101399.44;4984695;28;20226;-60
2022/03/27 09:13:24;;;;;;;16.53;15.00;;;;;;;20.89;37.88;101388.63;5000499;28;20238;-60
2022/03/27 09:16:01;;;;;;;20.20;16.20;;;;;;;21.15;37.05;101396.22;4976153;28;20196;-61
2022/03/27 09:18:41;;;;;;;16.20;14.60;;;;;;;20.83;37.57;101396.94;4985814;28;20186;-61
2022/03/27 09:21:07;;;;;;;17.70;15.40;;;;;;;21.11;37.26;101394.78;4973587;28;20231;-61
2022/03/27 09:23:35;;;;;;;18.50;15.43;;;;;;;20.82;37.32;101394.44;4991122;28;20171;-60
2022/03/27 09:26:13;;;;;;;17.00;15.20;;;;;;;21.50;36.09;101399.59;4991265;28;20230;-60
2022/03/27 09:28:40;;;;;;;16.30;14.67;;;;;;;21.08;36.56;101398.47;4992923;28;20178;-60
2022/03/27 09:31:06;;;;;;;17.77;15.77;;;;;;;20.78;37.00;101399.91;4984268;28;20677;-60
2022/03/27 09:33:46;;;;;;;16.63;14.90;;;;;;;21.17;36.68;101390.84;4990771;28;20730;-61
2022/03/27 09:36:21;;;;;;;17.93;15.90;;;;;;;21.40;35.60;101389.03;4983107;28;20183;-61
2022/03/27 09:39:07;;;;;;;18.10;16.20;;;;;;;20.38;37.94;101392.47;4971682;28;20197;-62
2022/03/27 09:41:35;;;;;;;16.27;14.67;;;;;;;21.22;36.62;101386.94;4974635;28;20321;-60
2022/03/27 09:44:03;;;;;;;17.73;15.93;;;;;;;21.58;35.72;101384.97;4976090;28;20251;-60
2022/03/27 09:46:50;;;;;;;17.90;16.00;;;;;;;21.41;35.50;101388.91;4971758;28;20269;-60
2022/03/27 09:49:17;;;;;;;17.47;15.77;;;;;;;20.83;36.56;101377.81;4971589;28;20184;-60
2022/03/27 09:52:22;;;;;;;18.07;16.27;;;;;;;21.41;35.39;101378.44;4964928;28;20314;-61
2022/03/27 09:54:49;;;;;;;17.20;15.47;;;;;;;22.29;34.50;101375.69;4972633;28;20229;-61
2022/03/27 09:57:28;;;;;;;17.87;16.17;;;;;;;22.70;33.71;101381.00;4971919;28;20734;-63
2022/03/27 09:59:56;;;;;;;16.90;15.17;;;;;;;21.58;35.38;101371.88;4972676;28;20188;-61
2022/03/27 10:02:24;;;;;;;18.80;16.80;;;;;;;22.22;34.66;101379.75;4977842;28;20279;-62
2022/03/27 10:05:05;;;;;;;17.83;16.07;;;;;;;23.48;32.25;101367.25;4971069;28;20652;-62
2022/03/27 10:07:43;;;;;;;18.45;16.58;;;;;;;23.47;32.31;101366.44;4971549;28;20188;-61
2022/03/27 10:10:11;;;;;;;18.75;15.85;;;;;;;24.24;31.11;101379.66;4961933;28;20176;-62
2022/03/27 10:12:38;;;;;;;17.58;15.88;;;;;;;24.53;30.41;101367.38;4979844;28;20942;-62
2022/03/27 10:15:11;;;;;;;16.92;15.30;;;;;;;23.74;30.57;101375.41;4991076;28;20180;-62
2022/03/27 10:17:38;;;;;;;18.50;16.15;;;;;;;23.51;31.86;101372.22;4981359;28;20211;-61
2022/03/27 10:20:10;;;;;;;20.48;17.35;;;;;;;23.64;31.04;101364.91;4961583;28;20287;-62
2022/03/27 10:22:40;;;;;;;18.27;16.48;;;;;;;23.36;30.88;101367.38;4999072;28;20191;-62
2022/03/27 10:25:08;;;;;;;16.67;14.98;;;;;;;22.36;32.10;101362.88;4973046;28;20657;-61
2022/03/27 10:27:38;;;;;;;17.20;15.50;;;;;;;22.59;31.71;101362.72;4971697;28;20203;-61
2022/03/27 10:30:06;;;;;;;17.38;15.68;;;;;;;23.19;31.21;101349.69;4966088;28;20187;-62
2022/03/27 10:32:33;;;;;;;16.98;15.00;;;;;;;24.70;29.16;101344.78;4987398;28;20192;-62
2022/03/27 10:35:05;;;;;;;16.38;14.70;;;;;;;23.55;29.08;101347.34;4989899;28;20176;-62
2022/03/27 10:38:13;;;;;;;20.83;15.88;;;;;;;20.66;33.77;101342.50;4991025;28;20221;-60
2022/03/27 10:40:57;;;;;;;18.08;15.68;;;;;;;19.75;36.62;101337.09;4983709;28;20253;-60
2022/03/27 10:43:34;;;;;;;19.13;15.75;;;;;;;18.57;38.54;101339.28;5002299;28;20171;-61
2022/03/27 10:46:15;;;;;;;20.17;14.83;;;;;;;18.42;39.25;101330.75;4995958;28;20219;-62
2022/03/27 10:48:42;;;;;;;17.93;14.27;;;;;;;18.00;39.40;101321.38;4996025;28;20183;-64
2022/03/27 10:51:12;;;;;;;21.40;15.50;;;;;;;17.31;40.66;101326.66;4994272;28;20314;-65
2022/03/27 10:53:38;;;;;;;20.80;16.23;;;;;;;17.37;41.41;101315.03;4981893;28;20600;-64
2022/03/27 10:56:04;;;;;;;19.27;15.10;;;;;;;17.48;39.34;101309.16;4974931;28;20179;-64
2022/03/27 10:58:29;;;;;;;18.33;14.00;;;;;;;17.58;40.57;101308.44;4976349;28;20219;-62
2022/03/27 11:00:57;;;;;;;15.67;14.07;;;;;;;17.68;41.42;101313.06;4957926;28;20227;-62
2022/03/27 11:03:47;;;;;;;17.30;13.90;;;;;;;17.60;39.72;101308.34;4984829;28;20172;-62
2022/03/27 11:06:22;;;;;;;17.63;14.57;;;;;;;17.53;40.20;101302.69;4974729;28;20212;-65
2022/03/27 11:08:53;;;;;;;16.77;13.47;;;;;;;17.33;40.44;101301.38;4976493;28;20218;-66
2022/03/27 11:11:37;;;;;;;17.70;13.60;;;;;;;17.38;40.22;101299.31;4965701;28;20231;-64
2022/03/27 11:14:09;;;;;;;12.90;10.33;;;;;;;17.33;39.14;101301.38;4991374;28;20207;-63
2022/03/27 11:17:04;;;;;;;14.83;11.97;;;;;;;17.17;39.22;101291.13;4965689;28;20242;-63
2022/03/27 11:19:40;;;;;;;15.97;11.50;;;;;;;17.39;39.04;101279.34;4987367;28;20198;-63
2022/03/27 11:22:05;;;;;;;14.50;11.53;;;;;;;17.48;39.42;101286.56;4985785;28;20226;-63